< < Back
Terminal Aerodrome Forecast


Current Version              Previous Versions:   1  2  3  4  5  6  7  8  9  

Terminal Aerodrome Forecast

504
FTUS42 KGSP 292333
TAFCLT
TAF
KCLT 292333Z 3000/3024 02011KT P6SM SCT040 OVC070
     FM300300 01007KT P6SM BKN045
      TEMPO 3006/3010 FEW007 BKN025
     FM301200 01006KT P6SM OVC020
     FM301400 01006KT P6SM BKN040 PROB30 3015/3020 4SM -TSRA
      OVC025CB=



Latest METAR

444
SAUS70 KWBC 301000 RRG
MTRCLT
METAR KCLT 300952Z 01007KT 10SM BKN013 OVC019 19/16 A3001 RMK AO2 SLP155
T01890156


USA.gov is the U.S. government's official web portal to all federal, state and local government web resources and services.